sensor_id;sensor_type;location;lat;lon;timestamp;pressure;altitude;pressure_sealevel;temperature;humidity
56241;BME280;42155;53.096;23.226;2023-05-12T00:01:02;100916.97;;;5.78;62.85
56241;BME280;42155;53.096;23.226;2023-05-12T00:03:02;100923.34;;;5.72;62.88
56241;BME280;42155;53.096;23.226;2023-05-12T00:05:02;100925.91;;;5.74;62.57
56241;BME280;42155;53.096;23.226;2023-05-12T00:07:03;100926.91;;;5.71;62.75
56241;BME280;42155;53.096;23.226;2023-05-12T00:09:03;100915.63;;;5.68;63.07
56241;BME280;42155;53.096;23.226;2023-05-12T00:11:04;100931.44;;;5.68;63.17
56241;BME280;42155;53.096;23.226;2023-05-12T00:13:04;100923.75;;;5.63;62.93
56241;BME280;42155;53.096;23.226;2023-05-12T00:15:05;100920.47;;;5.58;63.32
56241;BME280;42155;53.096;23.226;2023-05-12T00:17:05;100918.19;;;5.50;63.21
56241;BME280;42155;53.096;23.226;2023-05-12T00:19:06;100914.88;;;5.45;63.00
56241;BME280;42155;53.096;23.226;2023-05-12T00:21:06;100925.28;;;5.48;62.98
56241;BME280;42155;53.096;23.226;2023-05-12T00:23:07;100935.03;;;5.46;63.29
56241;BME280;42155;53.096;23.226;2023-05-12T00:25:07;100932.53;;;5.43;63.19
56241;BME280;42155;53.096;23.226;2023-05-12T00:27:07;100932.66;;;5.40;62.97
56241;BME280;42155;53.096;23.226;2023-05-12T00:29:08;100936.22;;;5.39;63.65
56241;BME280;42155;53.096;23.226;2023-05-12T00:31:08;100887.69;;;5.05;63.43
56241;BME280;42155;53.096;23.226;2023-05-12T00:33:09;100929.38;;;5.35;63.11
56241;BME280;42155;53.096;23.226;2023-05-12T00:35:09;100932.16;;;5.32;63.46
56241;BME280;42155;53.096;23.226;2023-05-12T00:37:09;100934.63;;;5.35;62.92
56241;BME280;42155;53.096;23.226;2023-05-12T00:39:09;100946.09;;;5.34;63.35
56241;BME280;42155;53.096;23.226;2023-05-12T00:41:10;100944.59;;;5.28;63.46
56241;BME280;42155;53.096;23.226;2023-05-12T00:43:10;100894.75;;;5.03;63.29
56241;BME280;42155;53.096;23.226;2023-05-12T00:45:10;100947.25;;;5.27;63.46
56241;BME280;42155;53.096;23.226;2023-05-12T00:47:11;100938.88;;;5.19;63.78
56241;BME280;42155;53.096;23.226;2023-05-12T00:49:11;100945.84;;;5.20;63.65
56241;BME280;42155;53.096;23.226;2023-05-12T00:51:12;100944.38;;;5.13;63.73
56241;BME280;42155;53.096;23.226;2023-05-12T00:53:14;100944.63;;;5.06;63.73
56241;BME280;42155;53.096;23.226;2023-05-12T00:55:15;100951.56;;;5.09;63.88
56241;BME280;42155;53.096;23.226;2023-05-12T00:57:15;100935.41;;;4.96;64.07
56241;BME280;42155;53.096;23.226;2023-05-12T00:59:17;100950.16;;;5.00;64.31
56241;BME280;42155;53.096;23.226;2023-05-12T01:01:17;100907.38;;;4.75;63.82
56241;BME280;42155;53.096;23.226;2023-05-12T01:03:18;100953.84;;;4.96;63.84
56241;BME280;42155;53.096;23.226;2023-05-12T01:05:18;100960.91;;;4.94;63.77
56241;BME280;42155;53.096;23.226;2023-05-12T01:07:21;100959.22;;;4.93;64.10
56241;BME280;42155;53.096;23.226;2023-05-12T01:09:21;100964.47;;;4.93;63.91
56241;BME280;42155;53.096;23.226;2023-05-12T01:11:22;100933.53;;;4.78;64.00
56241;BME280;42155;53.096;23.226;2023-05-12T01:13:22;100933.81;;;4.72;64.13
56241;BME280;42155;53.096;23.226;2023-05-12T01:15:22;100896.00;;;4.52;64.02
56241;BME280;42155;53.096;23.226;2023-05-12T01:17:28;100955.19;;;4.84;64.15
56241;BME280;42155;53.096;23.226;2023-05-12T01:19:46;100951.78;;;4.82;64.31
56241;BME280;42155;53.096;23.226;2023-05-12T01:21:47;100960.59;;;4.81;64.46
56241;BME280;42155;53.096;23.226;2023-05-12T01:24:01;100963.50;;;4.74;63.96
56241;BME280;42155;53.096;23.226;2023-05-12T01:26:07;100959.03;;;4.76;64.64
56241;BME280;42155;53.096;23.226;2023-05-12T01:28:08;100959.28;;;4.70;64.11
56241;BME280;42155;53.096;23.226;2023-05-12T01:30:09;100958.50;;;4.68;64.67
56241;BME280;42155;53.096;23.226;2023-05-12T01:32:12;100958.72;;;4.62;64.06
56241;BME280;42155;53.096;23.226;2023-05-12T01:34:15;100962.09;;;4.65;63.98
56241;BME280;42155;53.096;23.226;2023-05-12T01:36:16;100951.88;;;4.57;64.50
56241;BME280;42155;53.096;23.226;2023-05-12T01:38:16;100878.38;;;4.12;64.28
56241;BME280;42155;53.096;23.226;2023-05-12T01:40:17;100947.72;;;4.52;64.63
56241;BME280;42155;53.096;23.226;2023-05-12T01:42:17;100962.22;;;4.62;64.54
56241;BME280;42155;53.096;23.226;2023-05-12T01:44:17;100970.25;;;4.59;64.27
56241;BME280;42155;53.096;23.226;2023-05-12T01:46:18;100969.50;;;4.55;64.87
56241;BME280;42155;53.096;23.226;2023-05-12T01:48:18;100967.22;;;4.46;64.71
56241;BME280;42155;53.096;23.226;2023-05-12T01:50:18;100963.00;;;4.42;64.46
56241;BME280;42155;53.096;23.226;2023-05-12T01:52:19;100968.41;;;4.39;64.98
56241;BME280;42155;53.096;23.226;2023-05-12T01:54:19;100975.38;;;4.40;65.18
56241;BME280;42155;53.096;23.226;2023-05-12T01:56:19;100971.13;;;4.36;64.49
56241;BME280;42155;53.096;23.226;2023-05-12T01:58:20;100976.47;;;4.34;64.97
56241;BME280;42155;53.096;23.226;2023-05-12T02:00:20;100979.97;;;4.33;65.19
56241;BME280;42155;53.096;23.226;2023-05-12T02:02:20;100974.78;;;4.32;65.41
56241;BME280;42155;53.096;23.226;2023-05-12T02:04:21;100974.91;;;4.29;65.31
56241;BME280;42155;53.096;23.226;2023-05-12T02:06:21;100964.72;;;4.21;64.74
56241;BME280;42155;53.096;23.226;2023-05-12T02:08:22;100975.81;;;4.28;64.95
56241;BME280;42155;53.096;23.226;2023-05-12T02:10:22;100970.69;;;4.25;65.21
56241;BME280;42155;53.096;23.226;2023-05-12T02:12:22;100969.13;;;4.21;65.08
56241;BME280;42155;53.096;23.226;2023-05-12T02:14:23;100966.69;;;4.15;65.15
56241;BME280;42155;53.096;23.226;2023-05-12T02:16:23;100956.53;;;4.05;64.97
56241;BME280;42155;53.096;23.226;2023-05-12T02:18:23;100974.66;;;4.13;64.97
56241;BME280;42155;53.096;23.226;2023-05-12T02:20:24;100969.56;;;4.08;64.92
56241;BME280;42155;53.096;23.226;2023-05-12T02:22:24;100976.53;;;4.09;64.99
56241;BME280;42155;53.096;23.226;2023-05-12T02:24:25;100952.78;;;3.89;65.11
56241;BME280;42155;53.096;23.226;2023-05-12T02:26:25;100976.00;;;4.00;65.23
56241;BME280;42155;53.096;23.226;2023-05-12T02:28:25;100981.88;;;4.06;65.29
56241;BME280;42155;53.096;23.226;2023-05-12T02:30:26;100951.75;;;3.93;65.18
56241;BME280;42155;53.096;23.226;2023-05-12T02:32:26;100985.38;;;4.07;65.67
56241;BME280;42155;53.096;23.226;2023-05-12T02:34:26;100974.13;;;4.03;65.12
56241;BME280;42155;53.096;23.226;2023-05-12T02:36:27;100981.03;;;4.06;65.68
56241;BME280;42155;53.096;23.226;2023-05-12T02:38:27;100985.38;;;4.07;65.72
56241;BME280;42155;53.096;23.226;2023-05-12T02:40:27;100995.06;;;4.05;65.08
56241;BME280;42155;53.096;23.226;2023-05-12T02:42:28;100911.66;;;3.65;65.38
56241;BME280;42155;53.096;23.226;2023-05-12T02:44:28;100978.47;;;4.04;65.41
56241;BME280;42155;53.096;23.226;2023-05-12T02:46:28;100970.31;;;3.89;65.88
56241;BME280;42155;53.096;23.226;2023-05-12T02:48:28;100964.19;;;3.88;65.31
56241;BME280;42155;53.096;23.226;2023-05-12T02:50:29;100984.75;;;4.00;65.52
56241;BME280;42155;53.096;23.226;2023-05-12T02:52:29;100973.56;;;3.95;65.43
56241;BME280;42155;53.096;23.226;2023-05-12T02:54:29;100990.50;;;4.10;65.69
56241;BME280;42155;53.096;23.226;2023-05-12T02:56:30;100991.38;;;4.11;66.03
56241;BME280;42155;53.096;23.226;2023-05-12T02:58:30;100991.31;;;4.12;65.72
56241;BME280;42155;53.096;23.226;2023-05-12T03:00:31;100999.13;;;4.14;65.90
56241;BME280;42155;53.096;23.226;2023-05-12T03:02:32;100999.94;;;4.16;65.86
56241;BME280;42155;53.096;23.226;2023-05-12T03:04:32;100970.75;;;4.00;65.42
56241;BME280;42155;53.096;23.226;2023-05-12T03:06:33;101003.19;;;4.22;65.85
56241;BME280;42155;53.096;23.226;2023-05-12T03:08:33;101001.31;;;4.26;65.60
56241;BME280;42155;53.096;23.226;2023-05-12T03:10:34;100990.75;;;4.27;65.43
56241;BME280;42155;53.096;23.226;2023-05-12T03:12:34;100997.59;;;4.31;65.22
56241;BME280;42155;53.096;23.226;2023-05-12T03:14:34;100984.53;;;4.30;65.61
56241;BME280;42155;53.096;23.226;2023-05-12T03:16:34;100917.72;;;3.90;65.03
56241;BME280;42155;53.096;23.226;2023-05-12T03:18:35;101000.56;;;4.46;65.61
56241;BME280;42155;53.096;23.226;2023-05-12T03:20:35;101003.00;;;4.50;65.44
56241;BME280;42155;53.096;23.226;2023-05-12T03:22:35;100982.22;;;4.44;65.59
56241;BME280;42155;53.096;23.226;2023-05-12T03:24:36;100998.25;;;4.60;65.58
56241;BME280;42155;53.096;23.226;2023-05-12T03:26:36;100965.47;;;4.47;65.57
56241;BME280;42155;53.096;23.226;2023-05-12T03:28:36;100930.97;;;4.32;64.72
56241;BME280;42155;53.096;23.226;2023-05-12T03:30:37;100992.31;;;4.77;64.79
56241;BME280;42155;53.096;23.226;2023-05-12T03:32:37;101003.16;;;4.91;64.89
56241;BME280;42155;53.096;23.226;2023-05-12T03:34:37;100994.22;;;4.95;64.73
56241;BME280;42155;53.096;23.226;2023-05-12T03:36:38;101006.66;;;5.12;64.58
56241;BME280;42155;53.096;23.226;2023-05-12T03:38:38;100992.69;;;5.52;63.62
56241;BME280;42155;53.096;23.226;2023-05-12T03:40:38;100991.84;;;7.39;60.11
56241;BME280;42155;53.096;23.226;2023-05-12T03:42:39;101003.94;;;9.96;55.90
56241;BME280;42155;53.096;23.226;2023-05-12T03:44:39;100983.69;;;12.22;51.67
56241;BME280;42155;53.096;23.226;2023-05-12T03:46:40;100980.59;;;14.17;48.11
56241;BME280;42155;53.096;23.226;2023-05-12T03:48:40;100969.63;;;15.83;44.86
56241;BME280;42155;53.096;23.226;2023-05-12T03:50:40;100946.28;;;17.23;42.24
56241;BME280;42155;53.096;23.226;2023-05-12T03:52:41;100967.56;;;18.75;40.10
56241;BME280;42155;53.096;23.226;2023-05-12T03:54:41;100966.22;;;19.95;37.88
56241;BME280;42155;53.096;23.226;2023-05-12T03:56:41;100949.75;;;20.99;35.76
56241;BME280;42155;53.096;23.226;2023-05-12T03:58:42;100961.84;;;22.01;34.58
56241;BME280;42155;53.096;23.226;2023-05-12T04:00:42;100918.25;;;22.74;33.65
56241;BME280;42155;53.096;23.226;2023-05-12T04:02:43;100957.28;;;23.86;32.17
56241;BME280;42155;53.096;23.226;2023-05-12T04:04:43;100953.19;;;24.71;31.07
56241;BME280;42155;53.096;23.226;2023-05-12T04:06:43;100953.09;;;25.44;29.45
56241;BME280;42155;53.096;23.226;2023-05-12T04:08:44;100949.34;;;26.01;28.72
56241;BME280;42155;53.096;23.226;2023-05-12T04:10:44;100965.63;;;26.83;27.90
56241;BME280;42155;53.096;23.226;2023-05-12T04:12:44;100957.75;;;27.61;27.23
56241;BME280;42155;53.096;23.226;2023-05-12T04:14:45;100957.63;;;28.28;26.56
56241;BME280;42155;53.096;23.226;2023-05-12T04:16:45;100955.66;;;28.93;26.46
56241;BME280;42155;53.096;23.226;2023-05-12T04:18:45;100958.81;;;29.28;25.48
56241;BME280;42155;53.096;23.226;2023-05-12T04:20:46;100908.31;;;29.56;24.93
56241;BME280;42155;53.096;23.226;2023-05-12T04:22:46;100957.41;;;30.31;23.68
56241;BME280;42155;53.096;23.226;2023-05-12T04:24:46;100956.13;;;30.82;22.92
56241;BME280;42155;53.096;23.226;2023-05-12T04:26:47;100957.59;;;31.38;22.11
56241;BME280;42155;53.096;23.226;2023-05-12T04:28:47;100953.09;;;32.02;22.14
56241;BME280;42155;53.096;23.226;2023-05-12T04:30:47;100958.13;;;32.57;21.35
56241;BME280;42155;53.096;23.226;2023-05-12T04:32:48;100949.34;;;33.01;20.91
56241;BME280;42155;53.096;23.226;2023-05-12T04:34:48;100955.91;;;33.45;20.17
56241;BME280;42155;53.096;23.226;2023-05-12T04:36:48;100955.09;;;33.83;19.71
56241;BME280;42155;53.096;23.226;2023-05-12T04:38:49;100944.97;;;34.06;19.57
56241;BME280;42155;53.096;23.226;2023-05-12T04:40:49;100946.66;;;34.07;19.81
56241;BME280;42155;53.096;23.226;2023-05-12T04:42:49;100953.22;;;33.33;20.03
56241;BME280;42155;53.096;23.226;2023-05-12T04:44:50;100953.91;;;32.38;21.15
56241;BME280;42155;53.096;23.226;2023-05-12T04:46:50;100952.50;;;31.53;21.41
56241;BME280;42155;53.096;23.226;2023-05-12T04:48:50;100959.44;;;30.72;22.12
56241;BME280;42155;53.096;23.226;2023-05-12T04:50:51;100960.19;;;29.87;23.04
56241;BME280;42155;53.096;23.226;2023-05-12T04:52:51;100966.22;;;28.83;23.46
56241;BME280;42155;53.096;23.226;2023-05-12T04:54:52;100956.06;;;27.67;24.43
56241;BME280;42155;53.096;23.226;2023-05-12T04:56:52;100968.63;;;27.08;25.21
56241;BME280;42155;53.096;23.226;2023-05-12T04:58:52;100976.31;;;26.78;25.01
56241;BME280;42155;53.096;23.226;2023-05-12T05:00:53;100978.09;;;26.51;25.27
56241;BME280;42155;53.096;23.226;2023-05-12T05:02:53;100973.75;;;26.22;25.70
56241;BME280;42155;53.096;23.226;2023-05-12T05:04:53;100974.75;;;26.14;25.20
56241;BME280;42155;53.096;23.226;2023-05-12T05:06:54;100973.63;;;26.02;24.83
56241;BME280;42155;53.096;23.226;2023-05-12T05:08:54;100973.25;;;25.77;25.47
56241;BME280;42155;53.096;23.226;2023-05-12T05:10:54;100974.84;;;25.44;25.43
56241;BME280;42155;53.096;23.226;2023-05-12T05:12:55;100971.03;;;25.17;25.67
56241;BME280;42155;53.096;23.226;2023-05-12T05:14:55;100965.13;;;24.92;25.76
56241;BME280;42155;53.096;23.226;2023-05-12T05:16:55;100985.97;;;24.91;26.09
56241;BME280;42155;53.096;23.226;2023-05-12T05:18:56;100953.97;;;24.86;25.82
56241;BME280;42155;53.096;23.226;2023-05-12T05:20:56;100979.13;;;25.10;26.13
56241;BME280;42155;53.096;23.226;2023-05-12T05:22:57;100987.09;;;25.11;26.33
56241;BME280;42155;53.096;23.226;2023-05-12T05:24:57;100987.53;;;25.15;25.81
56241;BME280;42155;53.096;23.226;2023-05-12T05:26:57;100987.47;;;25.08;25.64
56241;BME280;42155;53.096;23.226;2023-05-12T05:28:58;100991.28;;;25.14;25.30
56241;BME280;42155;53.096;23.226;2023-05-12T05:30:58;100991.44;;;24.55;26.02
56241;BME280;42155;53.096;23.226;2023-05-12T05:32:58;100994.81;;;24.42;25.70
56241;BME280;42155;53.096;23.226;2023-05-12T05:34:59;100999.00;;;24.59;25.51
56241;BME280;42155;53.096;23.226;2023-05-12T05:36:59;100993.66;;;24.66;25.46
56241;BME280;42155;53.096;23.226;2023-05-12T05:38:59;100990.94;;;24.66;25.11
56241;BME280;42155;53.096;23.226;2023-05-12T05:41:00;100999.88;;;24.81;25.64
56241;BME280;42155;53.096;23.226;2023-05-12T05:43:00;100988.69;;;24.91;24.85
56241;BME280;42155;53.096;23.226;2023-05-12T05:45:00;100999.19;;;24.94;24.84
56241;BME280;42155;53.096;23.226;2023-05-12T05:47:01;101000.28;;;24.78;25.16
56241;BME280;42155;53.096;23.226;2023-05-12T05:49:01;100996.78;;;24.84;25.12
56241;BME280;42155;53.096;23.226;2023-05-12T05:51:02;100988.91;;;24.89;24.99
56241;BME280;42155;53.096;23.226;2023-05-12T05:53:02;100998.69;;;25.05;25.01
56241;BME280;42155;53.096;23.226;2023-05-12T05:55:02;100999.53;;;25.06;24.52
56241;BME280;42155;53.096;23.226;2023-05-12T05:57:03;100996.34;;;25.02;24.73
56241;BME280;42155;53.096;23.226;2023-05-12T05:59:03;100964.25;;;24.91;24.94
56241;BME280;42155;53.096;23.226;2023-05-12T06:01:04;101004.41;;;24.96;24.41
56241;BME280;42155;53.096;23.226;2023-05-12T06:03:04;101005.00;;;24.91;25.13
56241;BME280;42155;53.096;23.226;2023-05-12T06:05:05;101001.41;;;24.69;25.21
56241;BME280;42155;53.096;23.226;2023-05-12T06:07:05;101010.69;;;24.60;25.59
56241;BME280;42155;53.096;23.226;2023-05-12T06:09:05;101004.81;;;24.93;25.28
56241;BME280;42155;53.096;23.226;2023-05-12T06:11:06;100995.53;;;25.23;25.57
56241;BME280;42155;53.096;23.226;2023-05-12T06:13:06;101003.75;;;25.51;24.86
56241;BME280;42155;53.096;23.226;2023-05-12T06:15:07;100994.63;;;25.59;24.59
56241;BME280;42155;53.096;23.226;2023-05-12T06:17:07;101003.16;;;25.56;24.24
56241;BME280;42155;53.096;23.226;2023-05-12T06:19:07;101008.88;;;25.61;24.28
56241;BME280;42155;53.096;23.226;2023-05-12T06:21:08;100959.56;;;25.43;23.94
56241;BME280;42155;53.096;23.226;2023-05-12T06:23:08;101002.63;;;25.67;23.61
56241;BME280;42155;53.096;23.226;2023-05-12T06:25:09;101003.25;;;25.69;23.65
56241;BME280;42155;53.096;23.226;2023-05-12T06:27:09;101004.84;;;25.78;23.72
56241;BME280;42155;53.096;23.226;2023-05-12T06:29:10;100991.22;;;25.78;24.05
56241;BME280;42155;53.096;23.226;2023-05-12T06:31:10;100996.53;;;25.86;23.85
56241;BME280;42155;53.096;23.226;2023-05-12T06:33:10;100978.56;;;25.92;23.58
56241;BME280;42155;53.096;23.226;2023-05-12T06:35:11;101003.50;;;25.96;23.41
56241;BME280;42155;53.096;23.226;2023-05-12T06:37:11;100997.56;;;25.64;23.35
56241;BME280;42155;53.096;23.226;2023-05-12T06:39:11;101005.88;;;25.56;23.58
56241;BME280;42155;53.096;23.226;2023-05-12T06:41:12;100988.50;;;25.29;23.99
56241;BME280;42155;53.096;23.226;2023-05-12T06:43:12;101001.25;;;25.28;23.62
56241;BME280;42155;53.096;23.226;2023-05-12T06:45:12;101008.13;;;25.24;24.66
56241;BME280;42155;53.096;23.226;2023-05-12T06:47:13;100996.84;;;25.27;24.57
56241;BME280;42155;53.096;23.226;2023-05-12T06:49:13;100999.94;;;25.46;24.73
56241;BME280;42155;53.096;23.226;2023-05-12T06:51:13;101010.09;;;25.58;23.61
56241;BME280;42155;53.096;23.226;2023-05-12T06:53:14;100943.84;;;24.95;24.35
56241;BME280;42155;53.096;23.226;2023-05-12T06:55:14;100915.81;;;24.52;24.68
56241;BME280;42155;53.096;23.226;2023-05-12T06:57:14;101013.22;;;24.98;24.36
56241;BME280;42155;53.096;23.226;2023-05-12T06:59:15;101005.69;;;24.78;24.37
56241;BME280;42155;53.096;23.226;2023-05-12T07:01:15;101008.34;;;24.57;25.22
56241;BME280;42155;53.096;23.226;2023-05-12T07:03:15;101017.81;;;24.61;25.17
56241;BME280;42155;53.096;23.226;2023-05-12T07:05:16;101011.59;;;24.67;25.41
56241;BME280;42155;53.096;23.226;2023-05-12T07:07:16;101002.91;;;24.72;25.28
56241;BME280;42155;53.096;23.226;2023-05-12T07:09:16;101012.25;;;24.84;25.24
56241;BME280;42155;53.096;23.226;2023-05-12T07:11:17;101003.06;;;24.85;24.68
56241;BME280;42155;53.096;23.226;2023-05-12T07:13:17;101006.28;;;24.74;25.36
56241;BME280;42155;53.096;23.226;2023-05-12T07:15:17;100969.31;;;24.58;24.74
56241;BME280;42155;53.096;23.226;2023-05-12T07:17:18;100965.19;;;24.62;24.35
56241;BME280;42155;53.096;23.226;2023-05-12T07:19:18;100996.78;;;24.84;25.24
56241;BME280;42155;53.096;23.226;2023-05-12T07:21:18;101006.50;;;24.94;25.45
56241;BME280;42155;53.096;23.226;2023-05-12T07:23:19;101009.00;;;24.95;25.12
56241;BME280;42155;53.096;23.226;2023-05-12T07:25:19;100997.00;;;24.83;24.90
56241;BME280;42155;53.096;23.226;2023-05-12T07:27:19;100990.84;;;24.96;24.45
56241;BME280;42155;53.096;23.226;2023-05-12T07:29:20;101012.31;;;24.54;24.16
56241;BME280;42155;53.096;23.226;2023-05-12T07:31:20;101009.56;;;24.10;24.95
56241;BME280;42155;53.096;23.226;2023-05-12T07:33:20;101005.47;;;24.14;25.66
56241;BME280;42155;53.096;23.226;2023-05-12T07:35:21;101006.00;;;24.24;24.78
56241;BME280;42155;53.096;23.226;2023-05-12T07:37:21;100964.19;;;23.89;24.99
56241;BME280;42155;53.096;23.226;2023-05-12T07:39:21;100997.75;;;24.03;25.07
56241;BME280;42155;53.096;23.226;2023-05-12T07:41:22;101004.50;;;24.07;25.04
56241;BME280;42155;53.096;23.226;2023-05-12T07:43:22;101001.16;;;24.20;24.89
56241;BME280;42155;53.096;23.226;2023-05-12T07:45:23;100929.91;;;23.81;25.12
56241;BME280;42155;53.096;23.226;2023-05-12T07:47:23;101003.66;;;24.21;25.68
56241;BME280;42155;53.096;23.226;2023-05-12T07:49:23;100971.41;;;23.97;25.17
56241;BME280;42155;53.096;23.226;2023-05-12T07:51:24;100998.72;;;24.10;25.54
56241;BME280;42155;53.096;23.226;2023-05-12T07:53:24;100998.50;;;23.97;24.89
56241;BME280;42155;53.096;23.226;2023-05-12T07:55:24;100962.75;;;23.63;25.02
56241;BME280;42155;53.096;23.226;2023-05-12T07:57:25;101003.66;;;23.92;25.74
56241;BME280;42155;53.096;23.226;2023-05-12T07:59:25;100996.72;;;23.89;25.24
56241;BME280;42155;53.096;23.226;2023-05-12T08:01:25;100999.06;;;23.77;25.14
56241;BME280;42155;53.096;23.226;2023-05-12T08:03:26;100988.00;;;23.64;25.13
56241;BME280;42155;53.096;23.226;2023-05-12T08:05:26;100964.38;;;23.50;25.72
56241;BME280;42155;53.096;23.226;2023-05-12T08:07:27;100990.94;;;23.77;25.37
56241;BME280;42155;53.096;23.226;2023-05-12T08:09:27;100993.53;;;23.48;24.95
56241;BME280;42155;53.096;23.226;2023-05-12T08:11:27;100986.88;;;23.12;25.21
56241;BME280;42155;53.096;23.226;2023-05-12T08:13:28;101008.78;;;23.03;25.47
56241;BME280;42155;53.096;23.226;2023-05-12T08:15:28;100998.00;;;22.95;25.51
56241;BME280;42155;53.096;23.226;2023-05-12T08:17:28;101001.00;;;23.00;25.70
56241;BME280;42155;53.096;23.226;2023-05-12T08:19:29;100994.63;;;23.16;25.21
56241;BME280;42155;53.096;23.226;2023-05-12T08:21:29;100983.19;;;23.05;25.64
56241;BME280;42155;53.096;23.226;2023-05-12T08:23:29;100947.41;;;22.87;26.53
56241;BME280;42155;53.096;23.226;2023-05-12T08:25:30;100985.25;;;23.26;25.87
56241;BME280;42155;53.096;23.226;2023-05-12T08:27:30;100991.91;;;23.38;25.34
56241;BME280;42155;53.096;23.226;2023-05-12T08:29:31;100992.44;;;23.34;25.09
56241;BME280;42155;53.096;23.226;2023-05-12T08:31:31;100999.09;;;23.31;25.13
56241;BME280;42155;53.096;23.226;2023-05-12T08:33:33;100991.69;;;23.25;25.38
56241;BME280;42155;53.096;23.226;2023-05-12T08:35:34;100988.44;;;23.30;25.40
56241;BME280;42155;53.096;23.226;2023-05-12T08:37:34;100986.69;;;23.37;25.43
56241;BME280;42155;53.096;23.226;2023-05-12T08:39:35;100994.69;;;23.53;26.38
56241;BME280;42155;53.096;23.226;2023-05-12T08:41:42;100992.69;;;23.70;26.20
56241;BME280;42155;53.096;23.226;2023-05-12T08:43:45;100985.94;;;23.66;25.76
56241;BME280;42155;53.096;23.226;2023-05-12T08:45:45;100992.53;;;23.63;25.19
56241;BME280;42155;53.096;23.226;2023-05-12T08:47:46;100991.00;;;23.46;25.70
56241;BME280;42155;53.096;23.226;2023-05-12T08:49:48;100984.88;;;23.29;25.47
56241;BME280;42155;53.096;23.226;2023-05-12T08:51:53;100978.16;;;23.25;25.31
56241;BME280;42155;53.096;23.226;2023-05-12T08:53:55;100981.41;;;23.21;25.09
56241;BME280;42155;53.096;23.226;2023-05-12T08:55:56;100985.53;;;23.08;25.09
56241;BME280;42155;53.096;23.226;2023-05-12T08:58:02;100995.03;;;22.73;25.46
56241;BME280;42155;53.096;23.226;2023-05-12T09:00:02;100979.91;;;22.56;25.62
56241;BME280;42155;53.096;23.226;2023-05-12T09:02:04;100979.38;;;22.60;26.68
56241;BME280;42155;53.096;23.226;2023-05-12T09:04:07;100977.47;;;22.69;26.44
56241;BME280;42155;53.096;23.226;2023-05-12T09:06:08;100983.50;;;22.79;26.01
56241;BME280;42155;53.096;23.226;2023-05-12T09:08:09;100970.97;;;22.78;26.33
56241;BME280;42155;53.096;23.226;2023-05-12T09:10:17;100975.19;;;22.89;26.56
56241;BME280;42155;53.096;23.226;2023-05-12T09:12:18;100974.91;;;23.07;25.94
56241;BME280;42155;53.096;23.226;2023-05-12T09:14:23;100973.03;;;23.07;25.72
56241;BME280;42155;53.096;23.226;2023-05-12T09:16:28;100934.78;;;22.79;26.34
56241;BME280;42155;53.096;23.226;2023-05-12T09:18:43;100974.22;;;23.05;25.88
56241;BME280;42155;53.096;23.226;2023-05-12T09:20:44;100948.22;;;22.96;26.57
56241;BME280;42155;53.096;23.226;2023-05-12T09:22:44;100975.25;;;23.27;26.59
56241;BME280;42155;53.096;23.226;2023-05-12T09:24:45;100970.38;;;23.22;25.88
56241;BME280;42155;53.096;23.226;2023-05-12T09:26:51;100935.72;;;22.95;25.98
56241;BME280;42155;53.096;23.226;2023-05-12T09:28:57;100971.16;;;23.08;26.19
56241;BME280;42155;53.096;23.226;2023-05-12T09:31:22;100976.69;;;22.92;26.24
56241;BME280;42155;53.096;23.226;2023-05-12T09:33:23;100979.03;;;22.95;26.16
56241;BME280;42155;53.096;23.226;2023-05-12T09:35:24;100954.78;;;23.01;25.26
56241;BME280;42155;53.096;23.226;2023-05-12T09:37:29;100961.41;;;22.99;25.76
56241;BME280;42155;53.096;23.226;2023-05-12T09:39:30;100958.97;;;23.12;26.24
56241;BME280;42155;53.096;23.226;2023-05-12T09:41:37;100960.03;;;23.26;26.26
56241;BME280;42155;53.096;23.226;2023-05-12T09:43:44;100953.69;;;23.33;25.44
56241;BME280;42155;53.096;23.226;2023-05-12T09:45:45;100960.06;;;23.41;25.65
56241;BME280;42155;53.096;23.226;2023-05-12T09:47:45;100956.22;;;23.35;25.52
56241;BME280;42155;53.096;23.226;2023-05-12T09:49:50;100966.06;;;23.13;25.44
56241;BME280;42155;53.096;23.226;2023-05-12T09:51:52;100959.25;;;22.94;25.44
56241;BME280;42155;53.096;23.226;2023-05-12T09:53:52;100969.88;;;22.65;25.89
56241;BME280;42155;53.096;23.226;2023-05-12T09:55:53;100940.88;;;22.50;27.09
56241;BME280;42155;53.096;23.226;2023-05-12T09:57:54;100938.34;;;22.80;27.12
56241;BME280;42155;53.096;23.226;2023-05-12T09:59:55;100886.53;;;22.60;26.13
56241;BME280;42155;53.096;23.226;2023-05-12T10:01:58;100944.81;;;23.02;26.03
56241;BME280;42155;53.096;23.226;2023-05-12T10:03:59;100949.84;;;23.05;26.19
56241;BME280;42155;53.096;23.226;2023-05-12T10:06:02;100923.63;;;23.05;26.52
56241;BME280;42155;53.096;23.226;2023-05-12T10:08:05;100945.56;;;23.33;26.62
56241;BME280;42155;53.096;23.226;2023-05-12T10:10:07;100936.25;;;23.36;25.95
56241;BME280;42155;53.096;23.226;2023-05-12T10:12:08;100934.44;;;23.28;26.04
56241;BME280;42155;53.096;23.226;2023-05-12T10:14:09;100909.53;;;23.10;25.81
56241;BME280;42155;53.096;23.226;2023-05-12T10:16:10;100930.13;;;23.19;25.47
56241;BME280;42155;53.096;23.226;2023-05-12T10:18:11;100934.06;;;23.31;25.53
56241;BME280;42155;53.096;23.226;2023-05-12T10:20:12;100946.91;;;23.15;26.22
56241;BME280;42155;53.096;23.226;2023-05-12T10:22:14;100925.91;;;23.17;26.61
56241;BME280;42155;53.096;23.226;2023-05-12T10:24:15;100923.25;;;23.31;26.34
56241;BME280;42155;53.096;23.226;2023-05-12T10:26:16;100931.31;;;23.40;25.73